createdAt,value
2022-09-23T00:10:38.803Z,91.8
2022-09-23T00:30:38.810Z,91.9
2022-09-23T00:50:38.714Z,92.4
2022-09-23T01:10:38.687Z,91.9
2022-09-23T01:30:38.729Z,91.8
2022-09-23T01:50:38.634Z,91.8
2022-09-23T02:10:38.613Z,92
2022-09-23T03:30:38.512Z,91.7
2022-09-23T03:50:38.481Z,91.4
2022-09-23T04:10:38.460Z,92
2022-09-23T05:10:38.382Z,91
2022-09-23T05:30:38.357Z,92.2
2022-09-23T05:50:38.336Z,93
2022-09-23T06:10:38.314Z,93.4
2022-09-23T06:50:38.258Z,96.6
2022-09-23T07:10:38.233Z,97.7
2022-09-23T07:30:38.905Z,96.8
2022-09-23T07:50:38.184Z,95.4
2022-09-23T08:10:38.147Z,85.5
2022-09-23T08:30:38.164Z,77.5
2022-09-23T08:50:38.089Z,79.8
2022-09-23T09:10:38.053Z,76
2022-09-23T09:30:38.055Z,72.5
2022-09-23T09:50:37.991Z,66.9
2022-09-23T10:10:37.895Z,65.3
2022-09-23T10:30:37.907Z,63.5
2022-09-23T10:50:37.843Z,62.4
2022-09-23T11:10:46.186Z,59.8
2022-09-23T11:30:37.876Z,59.3
2022-09-23T11:50:37.760Z,61.3
2022-09-23T12:10:37.722Z,56.8
2022-09-23T12:30:37.751Z,53.9
2022-09-23T12:50:37.662Z,52.6
2022-09-23T13:10:37.637Z,52.8
2022-09-23T13:30:37.607Z,50.2
2022-09-23T13:50:37.559Z,46.3
2022-09-23T14:10:37.550Z,49.2
2022-09-23T14:30:37.501Z,52
2022-09-23T14:50:37.488Z,51.2
2022-09-23T15:10:37.429Z,51.4
2022-09-23T15:30:37.407Z,56.8
2022-09-23T15:50:37.364Z,61.6
2022-09-23T16:10:37.330Z,65.5
2022-09-23T16:30:37.296Z,67.7
2022-09-23T16:50:37.275Z,67.8
2022-09-23T17:10:37.234Z,71.9
2022-09-23T17:30:37.201Z,83
2022-09-23T17:50:37.160Z,87.5
2022-09-23T18:10:37.135Z,90.2
2022-09-23T18:30:37.101Z,91.2
2022-09-23T18:50:37.076Z,92.5
2022-09-23T20:30:36.950Z,95.1
2022-09-23T20:50:36.877Z,95.2
2022-09-23T21:10:36.845Z,94.7
2022-09-23T21:30:36.809Z,95.5
2022-09-23T21:50:36.795Z,95.6
2022-09-23T22:10:36.756Z,96.1
2022-09-23T23:30:36.632Z,95.2
